Unlu-5 — TCON5 — position and weather

sailwx.info

Track history (hours):
 
Tides and Currents Weather Stations Pressure Air Temp Water Temp Dewpoint Dewpoint Depression Visibility Wind Speed Wind Dir Waves Ship Positions

Unlu-5

Last reported at 2015-May-22 23:25 UTC. Time now 2015-May-24 19:24 UTC.
Position N 36°31' E 001°19'.

Length 99 m; draft 4 m.

Type: Cargo ship. MMSI: 271000854.

Date/timePositionNaut miles runAvg speedWind from/ knotsBaromVisibWave heightAir tempDewpointWater temp
2015-May-22 23:25N 36°31' E 001°19'  
2015-May-19 13:10N 39°33' W 000°08'6 7.7
2015-May-19 12:22N 39°38' W 000°12'  
2015-May-17 05:27N 39°39' W 000°13'3 0.5
2015-May-16 23:15N 39°37' W 000°10'5 7.4
2015-May-16 22:33N 39°32' W 000°07'9 8.5
2015-May-16 21:30N 39°25' W 000°01'93 7.6
2015-May-16 09:11N 37°51' W 000°07'9 8.4
2015-May-16 08:09N 37°44' W 000°13'7 8.4
2015-May-16 07:19N 37°38' W 000°18'7 8.0
2015-May-16 06:27N 37°32' W 000°23'7 8.1
2015-May-16 05:33N 37°26' W 000°28'8 7.7
2015-May-16 04:33N 37°20' W 000°33'8 7.7
2015-May-16 03:30N 37°13' W 000°38'7 7.3
2015-May-16 02:33N 37°07' W 000°42'8 7.2
2015-May-16 01:30N 36°60' W 000°46'125 4.3
2015-May-14 20:19N 35°06' W 001°52'0 0.0
2015-May-14 19:31N 35°06' W 001°52'0 0.0
2015-May-14 18:31N 35°06' W 001°52'0 0.0
2015-May-14 17:28N 35°06' W 001°52'0 0.0
2015-May-14 16:31N 35°06' W 001°52'0 0.0
2015-May-14 15:31N 35°06' W 001°52'0 0.0
2015-May-14 14:31N 35°06' W 001°52'0 0.0
2015-May-14 13:31N 35°06' W 001°52'0 0.0
2015-May-14 12:31N 35°06' W 001°52'0 0.0
2015-May-14 11:31N 35°06' W 001°52'0 0.0
2015-May-14 10:31N 35°06' W 001°52'0 0.0
2015-May-14 09:28N 35°06' W 001°52'0 0.0
2015-May-14 08:31N 35°06' W 001°52'0 0.0
2015-May-14 07:31N 35°06' W 001°52'0 0.0
2015-May-14 06:31N 35°06' W 001°52'0 0.0
2015-May-14 05:31N 35°06' W 001°52'0 0.0
2015-May-14 04:31N 35°06' W 001°52'0 0.0
2015-May-14 03:31N 35°06' W 001°52'0 0.0
2015-May-14 02:31N 35°06' W 001°52'0 0.0
2015-May-14 01:25N 35°06' W 001°52'0 0.0
2015-May-14 00:31N 35°06' W 001°52'0 0.0
2015-May-13 23:25N 35°06' W 001°52'0 0.0
2015-May-13 22:31N 35°06' W 001°52'0 0.0
2015-May-13 21:31N 35°06' W 001°52'0 0.0
2015-May-13 19:31N 35°06' W 001°52'0 0.0
2015-May-13 18:31N 35°06' W 001°52'0 0.0
2015-May-13 17:31N 35°06' W 001°52'0 0.0
2015-May-13 15:16N 35°06' W 001°52'0 0.0
2015-May-13 10:10N 35°06' W 001°52'0 0.0
2015-May-13 07:13N 35°06' W 001°52'0 0.0
2015-May-13 05:31N 35°06' W 001°52'0 0.0
2015-May-13 04:31N 35°06' W 001°52'0 0.0
2015-May-13 03:19N 35°06' W 001°52'0 0.0
2015-May-13 02:31N 35°06' W 001°52'  
Track history (hours):
 
Tides and Currents Weather Stations Pressure Air Temp Water Temp Dewpoint Dewpoint Depression Visibility Wind Speed Wind Dir Waves Ship Positions

Unlu-5

Last reported at 2015-May-22 23:25 UTC. Time now 2015-May-24 19:24 UTC.
Position N 36°31' E 001°19'.

Length 99 m; draft 4 m.

Type: Cargo ship. MMSI: 271000854.

Date/timePositionNaut miles runAvg speedWind from/ knotsBaromVisibWave heightAir tempDewpointWater temp
2015-May-22 23:25N 36°31' E 001°19'  
2015-May-19 13:10N 39°33' W 000°08'6 7.7
2015-May-19 12:22N 39°38' W 000°12'  
2015-May-17 05:27N 39°39' W 000°13'3 0.5
2015-May-16 23:15N 39°37' W 000°10'5 7.4
2015-May-16 22:33N 39°32' W 000°07'9 8.5
2015-May-16 21:30N 39°25' W 000°01'93 7.6
2015-May-16 09:11N 37°51' W 000°07'9 8.4
2015-May-16 08:09N 37°44' W 000°13'7 8.4
2015-May-16 07:19N 37°38' W 000°18'7 8.0
2015-May-16 06:27N 37°32' W 000°23'7 8.1
2015-May-16 05:33N 37°26' W 000°28'8 7.7
2015-May-16 04:33N 37°20' W 000°33'8 7.7
2015-May-16 03:30N 37°13' W 000°38'7 7.3
2015-May-16 02:33N 37°07' W 000°42'8 7.2
2015-May-16 01:30N 36°60' W 000°46'125 4.3
2015-May-14 20:19N 35°06' W 001°52'0 0.0
2015-May-14 19:31N 35°06' W 001°52'0 0.0
2015-May-14 18:31N 35°06' W 001°52'0 0.0
2015-May-14 17:28N 35°06' W 001°52'0 0.0
2015-May-14 16:31N 35°06' W 001°52'0 0.0
2015-May-14 15:31N 35°06' W 001°52'0 0.0
2015-May-14 14:31N 35°06' W 001°52'0 0.0
2015-May-14 13:31N 35°06' W 001°52'0 0.0
2015-May-14 12:31N 35°06' W 001°52'0 0.0
2015-May-14 11:31N 35°06' W 001°52'0 0.0
2015-May-14 10:31N 35°06' W 001°52'0 0.0
2015-May-14 09:28N 35°06' W 001°52'0 0.0
2015-May-14 08:31N 35°06' W 001°52'0 0.0
2015-May-14 07:31N 35°06' W 001°52'0 0.0
2015-May-14 06:31N 35°06' W 001°52'0 0.0
2015-May-14 05:31N 35°06' W 001°52'0 0.0
2015-May-14 04:31N 35°06' W 001°52'0 0.0
2015-May-14 03:31N 35°06' W 001°52'0 0.0
2015-May-14 02:31N 35°06' W 001°52'0 0.0
2015-May-14 01:25N 35°06' W 001°52'0 0.0
2015-May-14 00:31N 35°06' W 001°52'0 0.0
2015-May-13 23:25N 35°06' W 001°52'0 0.0
2015-May-13 22:31N 35°06' W 001°52'0 0.0
2015-May-13 21:31N 35°06' W 001°52'0 0.0
2015-May-13 19:31N 35°06' W 001°52'0 0.0
2015-May-13 18:31N 35°06' W 001°52'0 0.0
2015-May-13 17:31N 35°06' W 001°52'0 0.0
2015-May-13 15:16N 35°06' W 001°52'0 0.0
2015-May-13 10:10N 35°06' W 001°52'0 0.0
2015-May-13 07:13N 35°06' W 001°52'0 0.0
2015-May-13 05:31N 35°06' W 001°52'0 0.0
2015-May-13 04:31N 35°06' W 001°52'0 0.0
2015-May-13 03:19N 35°06' W 001°52'0 0.0
2015-May-13 02:31N 35°06' W 001°52'  

Dump ship's entire track history